sensor_id;sensor_type;location;lat;lon;timestamp;pressure;altitude;pressure_sealevel;temperature;humidity
9523;BME280;63165;43.016;25.784;2022-09-20T00:01:29;100048.47;;;15.82;59.93
9523;BME280;63165;43.016;25.784;2022-09-20T00:03:58;100051.97;;;15.82;60.42
9523;BME280;63165;43.016;25.784;2022-09-20T00:06:27;100048.41;;;15.83;60.45
9523;BME280;63165;43.016;25.784;2022-09-20T00:08:57;100054.69;;;15.81;61.77
9523;BME280;63165;43.016;25.784;2022-09-20T00:11:27;100056.44;;;15.80;61.91
9523;BME280;63165;43.016;25.784;2022-09-20T00:13:56;100058.22;;;15.80;62.55
9523;BME280;63165;43.016;25.784;2022-09-20T00:16:26;100070.56;;;15.79;62.02
9523;BME280;63165;43.016;25.784;2022-09-20T00:18:55;100070.66;;;15.76;62.36
9523;BME280;63165;43.016;25.784;2022-09-20T00:21:24;100070.72;;;15.75;62.86
9523;BME280;63165;43.016;25.784;2022-09-20T00:23:52;100072.44;;;15.76;63.79
9523;BME280;63165;43.016;25.784;2022-09-20T00:26:21;100069.03;;;15.72;64.67
9523;BME280;63165;43.016;25.784;2022-09-20T00:28:48;100077.03;;;15.69;64.90
9523;BME280;63165;43.016;25.784;2022-09-20T00:31:16;100067.53;;;15.65;64.94
9523;BME280;63165;43.016;25.784;2022-09-20T00:33:44;100078.28;;;15.60;64.91
9523;BME280;63165;43.016;25.784;2022-09-20T00:36:29;100074.03;;;15.56;65.09
9523;BME280;63165;43.016;25.784;2022-09-20T00:38:57;100074.13;;;15.53;65.04
9523;BME280;63165;43.016;25.784;2022-09-20T00:41:27;100063.69;;;15.50;63.87
9523;BME280;63165;43.016;25.784;2022-09-20T00:43:56;100072.63;;;15.46;63.57
9523;BME280;63165;43.016;25.784;2022-09-20T00:46:26;100065.84;;;15.39;62.88
9523;BME280;63165;43.016;25.784;2022-09-20T00:48:57;100067.78;;;15.33;62.54
9523;BME280;63165;43.016;25.784;2022-09-20T00:51:28;100060.81;;;15.32;61.71
9523;BME280;63165;43.016;25.784;2022-09-20T00:54:00;100068.03;;;15.27;61.23
9523;BME280;63165;43.016;25.784;2022-09-20T00:56:31;100072.50;;;15.25;61.54
9523;BME280;63165;43.016;25.784;2022-09-20T00:59:08;100082.19;;;15.25;61.26
9523;BME280;63165;43.016;25.784;2022-09-20T01:01:37;100081.38;;;15.23;60.75
9523;BME280;63165;43.016;25.784;2022-09-20T01:04:05;100079.69;;;15.20;60.03
9523;BME280;63165;43.016;25.784;2022-09-20T01:06:33;100073.63;;;15.18;59.50
9523;BME280;63165;43.016;25.784;2022-09-20T01:09:02;100070.09;;;15.19;59.05
9523;BME280;63165;43.016;25.784;2022-09-20T01:11:34;100062.22;;;15.18;58.73
9523;BME280;63165;43.016;25.784;2022-09-20T01:14:02;100070.13;;;15.18;58.25
9523;BME280;63165;43.016;25.784;2022-09-20T01:16:29;100058.78;;;15.16;58.00
9523;BME280;63165;43.016;25.784;2022-09-20T01:19:01;100055.22;;;15.17;57.86
9523;BME280;63165;43.016;25.784;2022-09-20T01:21:32;100053.47;;;15.17;58.25
9523;BME280;63165;43.016;25.784;2022-09-20T01:24:07;100052.56;;;15.17;57.79
9523;BME280;63165;43.016;25.784;2022-09-20T01:26:55;100058.72;;;15.17;58.40
9523;BME280;63165;43.016;25.784;2022-09-20T01:29:36;100060.44;;;15.18;57.94
9523;BME280;63165;43.016;25.784;2022-09-20T01:32:11;100064.09;;;15.14;58.36
9523;BME280;63165;43.016;25.784;2022-09-20T01:34:45;100061.56;;;15.11;58.23
9523;BME280;63165;43.016;25.784;2022-09-20T01:37:16;100058.94;;;15.11;58.58
9523;BME280;63165;43.016;25.784;2022-09-20T01:39:53;100054.53;;;15.11;58.63
9523;BME280;63165;43.016;25.784;2022-09-20T01:42:31;100058.06;;;15.10;58.08
9523;BME280;63165;43.016;25.784;2022-09-20T01:45:03;100053.66;;;15.11;58.46
9523;BME280;63165;43.016;25.784;2022-09-20T01:47:37;100057.22;;;15.10;58.49
9523;BME280;63165;43.016;25.784;2022-09-20T01:50:23;100066.97;;;15.08;58.99
9523;BME280;63165;43.016;25.784;2022-09-20T01:53:16;100061.84;;;15.03;58.55
9523;BME280;63165;43.016;25.784;2022-09-20T01:56:03;100071.63;;;15.00;59.16
9523;BME280;63165;43.016;25.784;2022-09-20T01:59:07;100070.06;;;14.94;58.81
9523;BME280;63165;43.016;25.784;2022-09-20T02:02:03;100060.63;;;14.87;58.67
9523;BME280;63165;43.016;25.784;2022-09-20T02:07:48;100068.81;;;14.79;58.63
9523;BME280;63165;43.016;25.784;2022-09-20T02:10:34;100066.44;;;14.71;58.87
9523;BME280;63165;43.016;25.784;2022-09-20T02:13:09;100065.66;;;14.68;58.95
9523;BME280;63165;43.016;25.784;2022-09-20T02:16:04;100068.44;;;14.65;59.03
9523;BME280;63165;43.016;25.784;2022-09-20T02:18:46;100079.94;;;14.61;59.42
9523;BME280;63165;43.016;25.784;2022-09-20T02:21:29;100067.75;;;14.56;58.73
9523;BME280;63165;43.016;25.784;2022-09-20T02:24:04;100083.69;;;14.53;58.91
9523;BME280;63165;43.016;25.784;2022-09-20T02:26:48;100076.69;;;14.52;59.09
9523;BME280;63165;43.016;25.784;2022-09-20T02:29:27;100078.56;;;14.49;59.17
9523;BME280;63165;43.016;25.784;2022-09-20T02:32:22;100075.13;;;14.47;59.39
9523;BME280;63165;43.016;25.784;2022-09-20T02:35:09;100076.97;;;14.43;59.49
9523;BME280;63165;43.016;25.784;2022-09-20T02:38:04;100076.25;;;14.38;59.39
9523;BME280;63165;43.016;25.784;2022-09-20T02:40:48;100080.03;;;14.31;59.51
9523;BME280;63165;43.016;25.784;2022-09-20T02:43:26;100077.47;;;14.28;59.55
9523;BME280;63165;43.016;25.784;2022-09-20T02:46:02;100077.56;;;14.25;60.01
9523;BME280;63165;43.016;25.784;2022-09-20T02:48:37;100091.69;;;14.22;59.92
9523;BME280;63165;43.016;25.784;2022-09-20T02:51:17;100087.31;;;14.21;59.96
9523;BME280;63165;43.016;25.784;2022-09-20T02:53:53;100090.03;;;14.20;60.40
9523;BME280;63165;43.016;25.784;2022-09-20T02:56:30;100086.66;;;14.14;60.39
9523;BME280;63165;43.016;25.784;2022-09-20T02:59:05;100093.81;;;14.09;60.90
9523;BME280;63165;43.016;25.784;2022-09-20T03:01:42;100085.16;;;14.06;60.79
9523;BME280;63165;43.016;25.784;2022-09-20T03:04:24;100085.41;;;13.98;61.66
9523;BME280;63165;43.016;25.784;2022-09-20T03:07:04;100083.91;;;13.89;61.47
9523;BME280;63165;43.016;25.784;2022-09-20T03:09:40;100096.38;;;13.83;62.00
9523;BME280;63165;43.016;25.784;2022-09-20T03:12:16;100097.31;;;13.80;62.43
9523;BME280;63165;43.016;25.784;2022-09-20T03:14:56;100093.16;;;13.73;62.28
9523;BME280;63165;43.016;25.784;2022-09-20T03:17:34;100083.84;;;13.61;62.67
9523;BME280;63165;43.016;25.784;2022-09-20T03:20:16;100085.88;;;13.51;63.04
9523;BME280;63165;43.016;25.784;2022-09-20T03:22:55;100083.50;;;13.42;63.04
9523;BME280;63165;43.016;25.784;2022-09-20T03:31:20;100088.44;;;13.20;63.52
9523;BME280;63165;43.016;25.784;2022-09-20T03:33:58;100086.03;;;13.12;63.50
9523;BME280;63165;43.016;25.784;2022-09-20T03:36:48;100080.00;;;13.09;63.98
9523;BME280;63165;43.016;25.784;2022-09-20T03:42:20;100092.69;;;12.93;64.00
9523;BME280;63165;43.016;25.784;2022-09-20T03:50:58;100100.03;;;12.78;64.71
9523;BME280;63165;43.016;25.784;2022-09-20T03:53:54;100110.75;;;12.69;65.04
9523;BME280;63165;43.016;25.784;2022-09-20T03:59:40;100117.94;;;12.62;65.20
9523;BME280;63165;43.016;25.784;2022-09-20T04:02:32;100118.88;;;12.58;65.26
9523;BME280;63165;43.016;25.784;2022-09-20T04:05:05;100138.31;;;12.51;65.66
9523;BME280;63165;43.016;25.784;2022-09-20T04:07:41;100130.50;;;12.48;65.95
9523;BME280;63165;43.016;25.784;2022-09-20T04:10:23;100135.00;;;12.43;66.43
9523;BME280;63165;43.016;25.784;2022-09-20T04:13:10;100143.84;;;12.39;66.48
9523;BME280;63165;43.016;25.784;2022-09-20T04:15:48;100138.63;;;12.37;66.80
9523;BME280;63165;43.016;25.784;2022-09-20T04:18:26;100146.53;;;12.36;66.60
9523;BME280;63165;43.016;25.784;2022-09-20T04:21:02;100138.69;;;12.34;66.88
9523;BME280;63165;43.016;25.784;2022-09-20T04:23:32;100137.06;;;12.29;66.94
9523;BME280;63165;43.016;25.784;2022-09-20T04:26:02;100145.06;;;12.22;66.35
9523;BME280;63165;43.016;25.784;2022-09-20T04:28:34;100154.75;;;12.19;66.61
9523;BME280;63165;43.016;25.784;2022-09-20T04:31:08;100147.00;;;12.14;66.39
9523;BME280;63165;43.016;25.784;2022-09-20T04:33:43;100142.72;;;12.10;66.70
9523;BME280;63165;43.016;25.784;2022-09-20T04:36:25;100151.47;;;12.09;67.09
9523;BME280;63165;43.016;25.784;2022-09-20T04:39:02;100148.91;;;12.06;67.85
9523;BME280;63165;43.016;25.784;2022-09-20T04:42:01;100154.28;;;12.01;68.19
9523;BME280;63165;43.016;25.784;2022-09-20T04:51:13;100150.78;;;12.01;68.95
9523;BME280;63165;43.016;25.784;2022-09-20T04:57:04;100157.78;;;12.00;70.69
9523;BME280;63165;43.016;25.784;2022-09-20T04:59:47;100161.16;;;12.06;70.96
9523;BME280;63165;43.016;25.784;2022-09-20T05:02:43;100161.00;;;12.13;71.33
9523;BME280;63165;43.016;25.784;2022-09-20T05:05:49;100159.97;;;12.20;70.59
9523;BME280;63165;43.016;25.784;2022-09-20T05:08:51;100165.91;;;12.29;70.42
9523;BME280;63165;43.016;25.784;2022-09-20T05:11:55;100156.94;;;12.40;70.82
9523;BME280;63165;43.016;25.784;2022-09-20T05:17:28;100174.09;;;12.55;70.58
9523;BME280;63165;43.016;25.784;2022-09-20T05:23:33;100174.59;;;12.71;70.97
9523;BME280;63165;43.016;25.784;2022-09-20T05:26:11;100170.03;;;12.79;70.87
9523;BME280;63165;43.016;25.784;2022-09-20T05:28:48;100170.72;;;12.86;70.24
9523;BME280;63165;43.016;25.784;2022-09-20T05:31:25;100174.00;;;12.96;69.42
9523;BME280;63165;43.016;25.784;2022-09-20T05:33:59;100179.03;;;13.05;68.80
9523;BME280;63165;43.016;25.784;2022-09-20T05:36:38;100173.47;;;13.17;67.30
9523;BME280;63165;43.016;25.784;2022-09-20T05:39:21;100175.75;;;13.31;66.42
9523;BME280;63165;43.016;25.784;2022-09-20T05:41:56;100179.72;;;13.48;65.37
9523;BME280;63165;43.016;25.784;2022-09-20T05:44:30;100172.44;;;13.57;64.84
9523;BME280;63165;43.016;25.784;2022-09-20T05:47:11;100163.31;;;13.71;63.94
9523;BME280;63165;43.016;25.784;2022-09-20T05:49:50;100167.16;;;13.90;64.48
9523;BME280;63165;43.016;25.784;2022-09-20T05:52:45;100176.28;;;14.08;63.84
9523;BME280;63165;43.016;25.784;2022-09-20T05:55:29;100187.31;;;14.21;63.04
9523;BME280;63165;43.016;25.784;2022-09-20T05:58:20;100173.75;;;14.35;61.21
9523;BME280;63165;43.016;25.784;2022-09-20T06:00:52;100175.97;;;14.49;60.96
9523;BME280;63165;43.016;25.784;2022-09-20T06:03:33;100179.16;;;14.60;59.98
9523;BME280;63165;43.016;25.784;2022-09-20T06:06:06;100181.53;;;14.68;59.39
9523;BME280;63165;43.016;25.784;2022-09-20T06:08:55;100181.38;;;14.74;58.46
9523;BME280;63165;43.016;25.784;2022-09-20T06:11:45;100178.50;;;14.82;58.62
9523;BME280;63165;43.016;25.784;2022-09-20T06:14:21;100176.47;;;14.90;58.33
9523;BME280;63165;43.016;25.784;2022-09-20T06:17:01;100175.25;;;15.00;57.76
9523;BME280;63165;43.016;25.784;2022-09-20T06:19:35;100175.81;;;15.10;57.89
9523;BME280;63165;43.016;25.784;2022-09-20T06:22:12;100173.69;;;15.21;56.96
9523;BME280;63165;43.016;25.784;2022-09-20T06:24:45;100169.91;;;15.28;56.36
9523;BME280;63165;43.016;25.784;2022-09-20T06:27:17;100171.44;;;15.36;55.83
9523;BME280;63165;43.016;25.784;2022-09-20T06:29:52;100176.44;;;15.43;55.02
9523;BME280;63165;43.016;25.784;2022-09-20T06:32:21;100172.78;;;15.47;55.42
9523;BME280;63165;43.016;25.784;2022-09-20T06:34:52;100176.13;;;15.52;54.88
9523;BME280;63165;43.016;25.784;2022-09-20T06:37:36;100160.06;;;15.59;53.43
9523;BME280;63165;43.016;25.784;2022-09-20T06:40:32;100167.72;;;15.66;53.62
9523;BME280;63165;43.016;25.784;2022-09-20T06:43:21;100163.00;;;15.76;53.01
9523;BME280;63165;43.016;25.784;2022-09-20T06:45:49;100173.50;;;15.78;52.33
9523;BME280;63165;43.016;25.784;2022-09-20T06:48:17;100165.47;;;15.81;52.17
9523;BME280;63165;43.016;25.784;2022-09-20T06:50:44;100176.84;;;15.83;52.03
9523;BME280;63165;43.016;25.784;2022-09-20T06:53:15;100164.34;;;15.88;51.85
9523;BME280;63165;43.016;25.784;2022-09-20T06:55:44;100164.16;;;15.93;52.39
9523;BME280;63165;43.016;25.784;2022-09-20T06:58:12;100170.97;;;15.98;52.05
9523;BME280;63165;43.016;25.784;2022-09-20T07:00:41;100166.59;;;15.97;51.43
9523;BME280;63165;43.016;25.784;2022-09-20T07:03:08;100175.19;;;16.04;51.31
9523;BME280;63165;43.016;25.784;2022-09-20T07:05:37;100169.59;;;16.11;51.17
9523;BME280;63165;43.016;25.784;2022-09-20T07:08:04;100172.00;;;16.18;50.99
9523;BME280;63165;43.016;25.784;2022-09-20T07:10:32;100170.19;;;16.20;50.89
9523;BME280;63165;43.016;25.784;2022-09-20T07:13:01;100173.53;;;16.23;51.05
9523;BME280;63165;43.016;25.784;2022-09-20T07:15:30;100179.56;;;16.27;51.46
9523;BME280;63165;43.016;25.784;2022-09-20T07:17:59;100176.78;;;16.32;51.19
9523;BME280;63165;43.016;25.784;2022-09-20T07:20:26;100177.53;;;16.35;51.20
9523;BME280;63165;43.016;25.784;2022-09-20T07:22:53;100185.25;;;16.40;51.26
9523;BME280;63165;43.016;25.784;2022-09-20T07:25:21;100186.25;;;16.37;50.43
9523;BME280;63165;43.016;25.784;2022-09-20T07:27:49;100189.03;;;16.33;50.15
9523;BME280;63165;43.016;25.784;2022-09-20T07:30:18;100189.19;;;16.29;49.19
9523;BME280;63165;43.016;25.784;2022-09-20T07:32:46;100178.72;;;16.26;49.53
9523;BME280;63165;43.016;25.784;2022-09-20T07:35:15;100172.41;;;16.30;49.92
9523;BME280;63165;43.016;25.784;2022-09-20T07:37:42;100180.16;;;16.35;50.04
9523;BME280;63165;43.016;25.784;2022-09-20T07:40:10;100180.84;;;16.40;50.14
9523;BME280;63165;43.016;25.784;2022-09-20T07:42:37;100171.75;;;16.47;49.62
9523;BME280;63165;43.016;25.784;2022-09-20T07:45:05;100172.13;;;16.60;49.47
9523;BME280;63165;43.016;25.784;2022-09-20T07:47:33;100171.16;;;16.63;48.58
9523;BME280;63165;43.016;25.784;2022-09-20T07:50:01;100171.72;;;16.71;48.54
9523;BME280;63165;43.016;25.784;2022-09-20T07:52:30;100172.38;;;16.76;48.10
9523;BME280;63165;43.016;25.784;2022-09-20T07:54:57;100166.91;;;16.81;47.58
9523;BME280;63165;43.016;25.784;2022-09-20T07:57:24;100183.41;;;16.87;47.68
9523;BME280;63165;43.016;25.784;2022-09-20T07:59:52;100187.91;;;16.85;47.41
9523;BME280;63165;43.016;25.784;2022-09-20T08:02:19;100186.59;;;16.96;47.48
9523;BME280;63165;43.016;25.784;2022-09-20T08:04:49;100182.56;;;17.07;47.23
9523;BME280;63165;43.016;25.784;2022-09-20T08:07:16;100169.59;;;17.23;47.12
9523;BME280;63165;43.016;25.784;2022-09-20T08:09:45;100153.72;;;17.44;47.06
9523;BME280;63165;43.016;25.784;2022-09-20T08:12:12;100145.00;;;17.62;47.24
9523;BME280;63165;43.016;25.784;2022-09-20T08:14:39;100151.38;;;17.77;46.40
9523;BME280;63165;43.016;25.784;2022-09-20T08:17:06;100148.41;;;17.85;46.38
9523;BME280;63165;43.016;25.784;2022-09-20T08:19:36;100163.47;;;17.83;46.04
9523;BME280;63165;43.016;25.784;2022-09-20T08:22:11;100152.03;;;17.82;44.86
9523;BME280;63165;43.016;25.784;2022-09-20T08:24:39;100153.66;;;17.87;44.87
9523;BME280;63165;43.016;25.784;2022-09-20T08:27:10;100149.31;;;17.84;44.73
9523;BME280;63165;43.016;25.784;2022-09-20T08:29:37;100152.78;;;17.86;44.63
9523;BME280;63165;43.016;25.784;2022-09-20T08:32:06;100141.78;;;17.95;44.67
9523;BME280;63165;43.016;25.784;2022-09-20T08:34:36;100147.28;;;18.10;45.37
9523;BME280;63165;43.016;25.784;2022-09-20T08:37:04;100142.88;;;18.29;45.52
9523;BME280;63165;43.016;25.784;2022-09-20T08:39:32;100134.03;;;18.48;45.09
9523;BME280;63165;43.016;25.784;2022-09-20T08:42:13;100147.47;;;18.62;44.25
9523;BME280;63165;43.016;25.784;2022-09-20T08:45:05;100136.50;;;18.70;43.48
9523;BME280;63165;43.016;25.784;2022-09-20T08:47:51;100143.34;;;18.74;43.37
9523;BME280;63165;43.016;25.784;2022-09-20T08:50:20;100135.41;;;18.74;43.16
9523;BME280;63165;43.016;25.784;2022-09-20T08:52:53;100132.47;;;18.80;42.87
9523;BME280;63165;43.016;25.784;2022-09-20T08:55:23;100116.03;;;18.91;43.09
9523;BME280;63165;43.016;25.784;2022-09-20T08:57:55;100120.19;;;18.96;41.90
9523;BME280;63165;43.016;25.784;2022-09-20T09:00:25;100116.28;;;19.04;42.23
9523;BME280;63165;43.016;25.784;2022-09-20T09:02:55;100121.38;;;19.08;42.29
9523;BME280;63165;43.016;25.784;2022-09-20T09:05:32;100112.38;;;19.11;42.16
9523;BME280;63165;43.016;25.784;2022-09-20T09:08:02;100120.34;;;19.11;42.10
9523;BME280;63165;43.016;25.784;2022-09-20T09:10:34;100112.72;;;19.05;42.95
9523;BME280;63165;43.016;25.784;2022-09-20T09:13:04;100120.81;;;19.01;42.65
9523;BME280;63165;43.016;25.784;2022-09-20T09:15:34;100105.38;;;18.92;42.09
9523;BME280;63165;43.016;25.784;2022-09-20T09:21:33;100097.22;;;18.78;42.46
9523;BME280;63165;43.016;25.784;2022-09-20T09:24:23;100097.22;;;18.78;41.76
9523;BME280;63165;43.016;25.784;2022-09-20T09:27:07;100090.81;;;18.84;41.66
9523;BME280;63165;43.016;25.784;2022-09-20T09:36:31;100091.81;;;18.98;41.59
9523;BME280;63165;43.016;25.784;2022-09-20T09:39:25;100093.91;;;18.92;41.65
9523;BME280;63165;43.016;25.784;2022-09-20T09:42:19;100098.03;;;18.97;41.74
9523;BME280;63165;43.016;25.784;2022-09-20T09:47:56;100089.78;;;19.04;41.06
9523;BME280;63165;43.016;25.784;2022-09-20T09:50:43;100078.06;;;19.08;40.87
9523;BME280;63165;43.016;25.784;2022-09-20T09:53:14;100095.84;;;19.06;40.94
9523;BME280;63165;43.016;25.784;2022-09-20T09:56:11;100090.03;;;18.99;40.53
9523;BME280;63165;43.016;25.784;2022-09-20T09:58:48;100086.22;;;18.87;40.27
9523;BME280;63165;43.016;25.784;2022-09-20T10:01:28;100077.56;;;18.84;40.43
9523;BME280;63165;43.016;25.784;2022-09-20T10:04:19;100074.66;;;18.88;41.22
9523;BME280;63165;43.016;25.784;2022-09-20T10:07:29;100089.53;;;18.91;41.13
9523;BME280;63165;43.016;25.784;2022-09-20T10:10:19;100081.44;;;18.94;40.99
9523;BME280;63165;43.016;25.784;2022-09-20T10:13:20;100077.84;;;18.95;41.18
9523;BME280;63165;43.016;25.784;2022-09-20T10:15:54;100084.78;;;18.97;40.87
9523;BME280;63165;43.016;25.784;2022-09-20T10:18:47;100091.81;;;18.98;41.22
9523;BME280;63165;43.016;25.784;2022-09-20T10:21:30;100084.94;;;18.94;40.98
9523;BME280;63165;43.016;25.784;2022-09-20T10:24:14;100083.44;;;18.89;41.22
9523;BME280;63165;43.016;25.784;2022-09-20T10:30:10;100083.44;;;18.89;40.97
9523;BME280;63165;43.016;25.784;2022-09-20T10:33:00;100083.63;;;18.86;41.92
9523;BME280;63165;43.016;25.784;2022-09-20T10:36:00;100076.59;;;18.85;41.78
9523;BME280;63165;43.016;25.784;2022-09-20T10:38:55;100072.31;;;18.82;41.00
9523;BME280;63165;43.016;25.784;2022-09-20T10:41:50;100076.09;;;18.76;41.80
9523;BME280;63165;43.016;25.784;2022-09-20T10:44:45;100073.44;;;18.76;41.19
9523;BME280;63165;43.016;25.784;2022-09-20T10:47:18;100071.50;;;18.80;41.93
9523;BME280;63165;43.016;25.784;2022-09-20T10:49:56;100069.59;;;18.84;41.47
9523;BME280;63165;43.016;25.784;2022-09-20T10:52:56;100068.56;;;18.86;41.97
9523;BME280;63165;43.016;25.784;2022-09-20T10:55:45;100064.19;;;18.85;41.65
9523;BME280;63165;43.016;25.784;2022-09-20T10:58:40;100057.19;;;18.84;41.68
9523;BME280;63165;43.016;25.784;2022-09-20T11:01:30;100058.81;;;18.87;42.24
9523;BME280;63165;43.016;25.784;2022-09-20T11:04:30;100049.88;;;18.89;42.29
9523;BME280;63165;43.016;25.784;2022-09-20T11:07:29;100052.13;;;18.97;41.60
9523;BME280;63165;43.016;25.784;2022-09-20T11:10:19;100054.31;;;19.06;41.82
9523;BME280;63165;43.016;25.784;2022-09-20T11:12:53;100046.09;;;19.11;41.66
9523;BME280;63165;43.016;25.784;2022-09-20T11:15:28;100049.38;;;19.16;41.87
9523;BME280;63165;43.016;25.784;2022-09-20T11:18:05;100041.25;;;19.19;41.23
9523;BME280;63165;43.016;25.784;2022-09-20T11:20:56;100037.56;;;19.22;40.93
9523;BME280;63165;43.016;25.784;2022-09-20T11:23:38;100047.00;;;19.27;41.33
9523;BME280;63165;43.016;25.784;2022-09-20T11:26:24;100041.38;;;19.33;40.96
9523;BME280;63165;43.016;25.784;2022-09-20T11:28:55;100040.31;;;19.53;40.42
9523;BME280;63165;43.016;25.784;2022-09-20T11:31:26;100035.56;;;19.76;40.23
9523;BME280;63165;43.016;25.784;2022-09-20T11:34:00;100022.47;;;19.89;39.57
9523;BME280;63165;43.016;25.784;2022-09-20T11:37:10;100033.44;;;19.98;39.41
9523;BME280;63165;43.016;25.784;2022-09-20T11:39:45;100028.53;;;20.07;39.87
9523;BME280;63165;43.016;25.784;2022-09-20T11:42:17;100030.00;;;20.12;40.10
9523;BME280;63165;43.016;25.784;2022-09-20T11:44:49;100020.25;;;20.13;39.58
9523;BME280;63165;43.016;25.784;2022-09-20T11:47:20;100023.75;;;20.13;39.52
9523;BME280;63165;43.016;25.784;2022-09-20T11:50:01;100021.78;;;20.17;39.32
9523;BME280;63165;43.016;25.784;2022-09-20T11:52:51;100013.28;;;20.26;39.29
9523;BME280;63165;43.016;25.784;2022-09-20T11:55:45;100013.16;;;20.44;39.30
9523;BME280;63165;43.016;25.784;2022-09-20T11:58:15;100006.63;;;20.65;39.15
9523;BME280;63165;43.016;25.784;2022-09-20T12:00:49;100006.47;;;20.83;38.22
9523;BME280;63165;43.016;25.784;2022-09-20T12:03:27;100011.31;;;20.90;37.75
9523;BME280;63165;43.016;25.784;2022-09-20T12:05:58;100003.84;;;20.97;37.90
9523;BME280;63165;43.016;25.784;2022-09-20T12:08:29;100004.50;;;21.01;37.56
9523;BME280;63165;43.016;25.784;2022-09-20T12:11:01;99990.16;;;21.03;37.08
9523;BME280;63165;43.016;25.784;2022-09-20T12:13:31;99993.78;;;21.02;37.25
9523;BME280;63165;43.016;25.784;2022-09-20T12:16:02;99998.69;;;20.94;36.68
9523;BME280;63165;43.016;25.784;2022-09-20T12:18:44;99996.50;;;20.86;37.10
9523;BME280;63165;43.016;25.784;2022-09-20T12:21:16;99998.31;;;20.86;37.51
9523;BME280;63165;43.016;25.784;2022-09-20T12:23:59;99992.56;;;20.78;36.97
9523;BME280;63165;43.016;25.784;2022-09-20T12:26:47;99985.66;;;20.75;37.30
9523;BME280;63165;43.016;25.784;2022-09-20T12:32:43;99987.97;;;21.10;36.69
9523;BME280;63165;43.016;25.784;2022-09-20T12:38:47;99997.31;;;21.46;35.80
9523;BME280;63165;43.016;25.784;2022-09-20T12:41:17;99984.84;;;21.61;35.31
9523;BME280;63165;43.016;25.784;2022-09-20T12:43:58;99986.53;;;21.76;35.21
9523;BME280;63165;43.016;25.784;2022-09-20T12:46:40;99992.25;;;21.97;35.53
9523;BME280;63165;43.016;25.784;2022-09-20T12:49:21;99989.84;;;22.07;35.03
9523;BME280;63165;43.016;25.784;2022-09-20T12:52:38;99983.66;;;22.06;34.96
9523;BME280;63165;43.016;25.784;2022-09-20T12:55:37;99992.31;;;22.10;35.06
9523;BME280;63165;43.016;25.784;2022-09-20T12:58:16;99989.75;;;22.08;34.76
9523;BME280;63165;43.016;25.784;2022-09-20T13:00:46;99991.38;;;22.11;34.70
9523;BME280;63165;43.016;25.784;2022-09-20T13:03:26;99983.66;;;22.06;34.23
9523;BME280;63165;43.016;25.784;2022-09-20T13:06:22;99986.34;;;22.06;34.59
9523;BME280;63165;43.016;25.784;2022-09-20T13:09:01;99990.25;;;22.01;34.61
9523;BME280;63165;43.016;25.784;2022-09-20T13:11:37;99988.09;;;21.93;34.02
9523;BME280;63165;43.016;25.784;2022-09-20T13:14:11;99981.66;;;21.83;34.49
9523;BME280;63165;43.016;25.784;2022-09-20T13:16:47;99976.44;;;21.81;34.61
9523;BME280;63165;43.016;25.784;2022-09-20T13:19:18;99990.59;;;21.82;34.49
9523;BME280;63165;43.016;25.784;2022-09-20T13:21:51;99988.78;;;21.82;34.80
9523;BME280;63165;43.016;25.784;2022-09-20T13:24:19;99985.19;;;21.83;34.96
9523;BME280;63165;43.016;25.784;2022-09-20T13:26:49;99976.03;;;21.87;34.38
9523;BME280;63165;43.016;25.784;2022-09-20T13:29:24;99998.31;;;21.86;34.61
9523;BME280;63165;43.016;25.784;2022-09-20T13:31:54;99988.44;;;21.74;34.10
9523;BME280;63165;43.016;25.784;2022-09-20T13:34:23;99992.16;;;21.57;34.23
9523;BME280;63165;43.016;25.784;2022-09-20T13:36:53;99989.41;;;21.44;34.49
9523;BME280;63165;43.016;25.784;2022-09-20T13:39:26;99998.53;;;21.26;34.21
9523;BME280;63165;43.016;25.784;2022-09-20T13:42:00;99999.84;;;21.04;34.65
9523;BME280;63165;43.016;25.784;2022-09-20T13:44:31;99991.56;;;20.94;35.02
9523;BME280;63165;43.016;25.784;2022-09-20T13:47:00;99993.38;;;20.94;35.22
9523;BME280;63165;43.016;25.784;2022-09-20T13:49:30;99989.38;;;21.01;35.12
9523;BME280;63165;43.016;25.784;2022-09-20T13:51:58;99986.34;;;21.07;36.11
9523;BME280;63165;43.016;25.784;2022-09-20T13:54:26;99978.84;;;21.14;35.70
9523;BME280;63165;43.016;25.784;2022-09-20T13:56:56;99972.31;;;21.20;35.86
9523;BME280;63165;43.016;25.784;2022-09-20T13:59:31;99993.09;;;21.27;35.55
9523;BME280;63165;43.016;25.784;2022-09-20T14:01:59;99988.28;;;21.34;35.01
9523;BME280;63165;43.016;25.784;2022-09-20T14:04:28;99992.13;;;21.43;35.42
9523;BME280;63165;43.016;25.784;2022-09-20T14:06:57;99989.56;;;21.41;35.77
9523;BME280;63165;43.016;25.784;2022-09-20T14:09:27;99990.81;;;21.36;35.40
9523;BME280;63165;43.016;25.784;2022-09-20T14:11:57;99992.03;;;21.30;35.38
9523;BME280;63165;43.016;25.784;2022-09-20T14:14:27;99997.38;;;21.30;35.45
9523;BME280;63165;43.016;25.784;2022-09-20T14:16:56;99988.38;;;21.32;34.81
9523;BME280;63165;43.016;25.784;2022-09-20T14:19:29;99997.00;;;21.36;35.40
9523;BME280;63165;43.016;25.784;2022-09-20T14:21:57;99999.69;;;21.36;35.58
9523;BME280;63165;43.016;25.784;2022-09-20T14:24:30;99993.78;;;21.31;34.45
9523;BME280;63165;43.016;25.784;2022-09-20T14:27:16;99997.59;;;21.27;34.34
9523;BME280;63165;43.016;25.784;2022-09-20T14:29:47;99989.03;;;21.22;34.49
9523;BME280;63165;43.016;25.784;2022-09-20T14:32:35;99994.63;;;21.17;34.35
9523;BME280;63165;43.016;25.784;2022-09-20T14:35:06;100004.31;;;21.18;35.26
9523;BME280;63165;43.016;25.784;2022-09-20T14:37:41;99999.19;;;21.15;35.14
9523;BME280;63165;43.016;25.784;2022-09-20T14:40:19;100003.94;;;21.10;34.72
9523;BME280;63165;43.016;25.784;2022-09-20T14:42:49;100012.00;;;21.08;35.17
9523;BME280;63165;43.016;25.784;2022-09-20T14:45:25;100001.09;;;20.99;34.67